sensor_id;sensor_type;location;lat;lon;timestamp;temperature;humidity
6954;DHT22;3516;47.980;8.808;2024-01-16T04:58:12;-8.60;99.90
6954;DHT22;3516;47.980;8.808;2024-01-16T05:00:38;-9.80;99.90
6954;DHT22;3516;47.980;8.808;2024-01-16T05:03:05;-9.90;99.90
6954;DHT22;3516;47.980;8.808;2024-01-16T05:05:32;-9.90;99.90
6954;DHT22;3516;47.980;8.808;2024-01-16T05:08:00;-9.90;99.90
6954;DHT22;3516;47.980;8.808;2024-01-16T05:10:26;-9.90;99.90
6954;DHT22;3516;47.980;8.808;2024-01-16T05:12:53;-9.90;99.90
6954;DHT22;3516;47.980;8.808;2024-01-16T05:15:21;-9.90;99.90
6954;DHT22;3516;47.980;8.808;2024-01-16T05:17:47;-9.90;99.90
6954;DHT22;3516;47.980;8.808;2024-01-16T05:20:14;-10.00;99.90
6954;DHT22;3516;47.980;8.808;2024-01-16T05:22:41;-10.00;99.90
6954;DHT22;3516;47.980;8.808;2024-01-16T05:25:07;-10.00;99.90
6954;DHT22;3516;47.980;8.808;2024-01-16T05:27:34;-9.90;99.90
6954;DHT22;3516;47.980;8.808;2024-01-16T05:30:01;-10.00;99.90
6954;DHT22;3516;47.980;8.808;2024-01-16T05:32:29;-10.00;99.90
6954;DHT22;3516;47.980;8.808;2024-01-16T05:34:55;-9.90;99.90
6954;DHT22;3516;47.980;8.808;2024-01-16T05:37:22;-9.80;99.90
6954;DHT22;3516;47.980;8.808;2024-01-16T05:39:48;-10.00;99.90
6954;DHT22;3516;47.980;8.808;2024-01-16T05:42:15;-10.00;99.90
6954;DHT22;3516;47.980;8.808;2024-01-16T05:44:42;-10.00;99.90
6954;DHT22;3516;47.980;8.808;2024-01-16T05:47:09;-10.00;99.90
6954;DHT22;3516;47.980;8.808;2024-01-16T05:49:37;-10.00;99.90
6954;DHT22;3516;47.980;8.808;2024-01-16T05:52:03;-10.10;99.90
6954;DHT22;3516;47.980;8.808;2024-01-16T05:54:30;-10.00;99.90
6954;DHT22;3516;47.980;8.808;2024-01-16T05:56:57;-10.10;99.90
6954;DHT22;3516;47.980;8.808;2024-01-16T05:59:23;-10.10;99.90
6954;DHT22;3516;47.980;8.808;2024-01-16T06:01:50;-10.10;99.90
6954;DHT22;3516;47.980;8.808;2024-01-16T06:04:16;-10.10;99.90
6954;DHT22;3516;47.980;8.808;2024-01-16T06:06:44;-10.10;99.90
6954;DHT22;3516;47.980;8.808;2024-01-16T06:09:13;-10.00;99.90
6954;DHT22;3516;47.980;8.808;2024-01-16T06:11:40;-10.00;99.90
6954;DHT22;3516;47.980;8.808;2024-01-16T06:14:07;-9.90;99.90
6954;DHT22;3516;47.980;8.808;2024-01-16T06:16:33;-10.00;99.90
6954;DHT22;3516;47.980;8.808;2024-01-16T06:19:00;-9.90;99.90
6954;DHT22;3516;47.980;8.808;2024-01-16T06:21:26;-9.80;99.90
6954;DHT22;3516;47.980;8.808;2024-01-16T06:23:54;-9.80;99.90
6954;DHT22;3516;47.980;8.808;2024-01-16T06:26:21;-9.80;99.90
6954;DHT22;3516;47.980;8.808;2024-01-16T11:59:26;-1.50;99.90
6954;DHT22;3516;47.980;8.808;2024-01-16T12:01:58;-1.50;99.90
6954;DHT22;3516;47.980;8.808;2024-01-16T12:04:26;-1.50;99.90
6954;DHT22;3516;47.980;8.808;2024-01-16T12:06:59;-1.50;99.90
6954;DHT22;3516;47.980;8.808;2024-01-16T12:09:27;-1.50;99.90
6954;DHT22;3516;47.980;8.808;2024-01-16T12:11:57;-1.50;99.90
6954;DHT22;3516;47.980;8.808;2024-01-16T12:14:25;-1.50;99.90
6954;DHT22;3516;47.980;8.808;2024-01-16T12:16:52;-1.50;99.90
6954;DHT22;3516;47.980;8.808;2024-01-16T12:19:19;-1.50;99.90
6954;DHT22;3516;47.980;8.808;2024-01-16T12:21:46;-1.50;99.90
6954;DHT22;3516;47.980;8.808;2024-01-16T12:24:12;-1.50;99.90
6954;DHT22;3516;47.980;8.808;2024-01-16T12:26:39;-1.50;99.90
6954;DHT22;3516;47.980;8.808;2024-01-16T12:29:07;-1.40;99.90
6954;DHT22;3516;47.980;8.808;2024-01-16T12:31:35;-1.40;99.90
6954;DHT22;3516;47.980;8.808;2024-01-16T12:34:05;-1.30;99.90
6954;DHT22;3516;47.980;8.808;2024-01-16T12:36:32;-1.30;99.90
6954;DHT22;3516;47.980;8.808;2024-01-16T12:38:59;-1.30;99.90
6954;DHT22;3516;47.980;8.808;2024-01-16T12:41:26;-1.30;99.90
6954;DHT22;3516;47.980;8.808;2024-01-16T12:43:57;-1.20;99.90
6954;DHT22;3516;47.980;8.808;2024-01-16T12:46:24;-1.30;99.90
6954;DHT22;3516;47.980;8.808;2024-01-16T12:48:52;-1.30;99.90
6954;DHT22;3516;47.980;8.808;2024-01-16T12:51:20;-1.30;99.90
6954;DHT22;3516;47.980;8.808;2024-01-16T12:53:47;-1.30;99.90
6954;DHT22;3516;47.980;8.808;2024-01-16T12:56:17;-1.30;99.90
6954;DHT22;3516;47.980;8.808;2024-01-16T12:58:44;-1.30;99.90
6954;DHT22;3516;47.980;8.808;2024-01-16T13:01:21;-1.30;99.90
6954;DHT22;3516;47.980;8.808;2024-01-16T13:03:49;-1.30;99.90
6954;DHT22;3516;47.980;8.808;2024-01-16T13:06:18;-1.20;99.90
6954;DHT22;3516;47.980;8.808;2024-01-16T13:08:45;-1.20;99.90
6954;DHT22;3516;47.980;8.808;2024-01-16T13:11:12;-1.20;99.90
6954;DHT22;3516;47.980;8.808;2024-01-16T13:13:41;-1.20;99.90
6954;DHT22;3516;47.980;8.808;2024-01-16T13:16:07;-1.20;99.90
6954;DHT22;3516;47.980;8.808;2024-01-16T13:18:34;-1.20;99.90
6954;DHT22;3516;47.980;8.808;2024-01-16T13:21:01;-1.20;99.90
6954;DHT22;3516;47.980;8.808;2024-01-16T13:23:29;-1.20;99.90
6954;DHT22;3516;47.980;8.808;2024-01-16T13:25:56;-1.20;99.90
6954;DHT22;3516;47.980;8.808;2024-01-16T13:28:24;-1.20;99.90
6954;DHT22;3516;47.980;8.808;2024-01-16T13:30:51;-1.20;99.90
6954;DHT22;3516;47.980;8.808;2024-01-16T13:33:18;-1.20;99.90
6954;DHT22;3516;47.980;8.808;2024-01-16T13:35:45;-1.30;99.90
6954;DHT22;3516;47.980;8.808;2024-01-16T13:38:12;-1.30;99.90
6954;DHT22;3516;47.980;8.808;2024-01-16T13:40:43;-1.30;99.90
6954;DHT22;3516;47.980;8.808;2024-01-16T13:43:10;-1.30;99.90
6954;DHT22;3516;47.980;8.808;2024-01-16T13:45:37;-1.40;99.90
6954;DHT22;3516;47.980;8.808;2024-01-16T13:48:04;-1.40;99.90
6954;DHT22;3516;47.980;8.808;2024-01-16T13:50:31;-1.40;99.90
6954;DHT22;3516;47.980;8.808;2024-01-16T13:52:58;-1.50;99.90
6954;DHT22;3516;47.980;8.808;2024-01-16T13:55:25;-1.50;99.90
6954;DHT22;3516;47.980;8.808;2024-01-16T13:57:53;-1.60;99.90
6954;DHT22;3516;47.980;8.808;2024-01-16T14:00:19;-1.70;99.90
6954;DHT22;3516;47.980;8.808;2024-01-16T14:02:46;-1.70;99.90
6954;DHT22;3516;47.980;8.808;2024-01-16T14:05:14;-1.80;99.90
6954;DHT22;3516;47.980;8.808;2024-01-16T14:07:41;-1.90;99.90
6954;DHT22;3516;47.980;8.808;2024-01-16T14:10:08;-1.90;99.90
6954;DHT22;3516;47.980;8.808;2024-01-16T14:12:37;-1.90;99.90
6954;DHT22;3516;47.980;8.808;2024-01-16T14:15:06;-2.00;99.90
6954;DHT22;3516;47.980;8.808;2024-01-16T14:17:41;-2.10;99.90
6954;DHT22;3516;47.980;8.808;2024-01-16T14:20:08;-2.20;99.90
6954;DHT22;3516;47.980;8.808;2024-01-16T14:22:36;-2.30;99.90
6954;DHT22;3516;47.980;8.808;2024-01-16T14:25:03;-2.30;99.90
6954;DHT22;3516;47.980;8.808;2024-01-16T14:27:36;-2.40;99.90
6954;DHT22;3516;47.980;8.808;2024-01-16T14:30:03;-2.50;99.90
6954;DHT22;3516;47.980;8.808;2024-01-16T14:32:31;-2.60;99.90
6954;DHT22;3516;47.980;8.808;2024-01-16T14:34:58;-2.60;99.90
6954;DHT22;3516;47.980;8.808;2024-01-16T14:37:24;-2.70;99.90
6954;DHT22;3516;47.980;8.808;2024-01-16T14:39:51;-2.80;99.90
6954;DHT22;3516;47.980;8.808;2024-01-16T14:42:18;-2.90;99.90
6954;DHT22;3516;47.980;8.808;2024-01-16T14:44:44;-3.00;99.90
6954;DHT22;3516;47.980;8.808;2024-01-16T14:47:11;-3.00;99.90
6954;DHT22;3516;47.980;8.808;2024-01-16T14:49:38;-3.10;99.90
6954;DHT22;3516;47.980;8.808;2024-01-16T14:52:05;-3.20;99.90
6954;DHT22;3516;47.980;8.808;2024-01-16T14:54:33;-3.20;99.90
6954;DHT22;3516;47.980;8.808;2024-01-16T14:56:59;-3.30;99.90
6954;DHT22;3516;47.980;8.808;2024-01-16T14:59:26;-3.30;99.90
6954;DHT22;3516;47.980;8.808;2024-01-16T15:01:52;-3.40;99.90
6954;DHT22;3516;47.980;8.808;2024-01-16T15:04:19;-3.40;99.90
6954;DHT22;3516;47.980;8.808;2024-01-16T15:06:47;-3.50;99.90
6954;DHT22;3516;47.980;8.808;2024-01-16T15:09:16;-3.50;99.90
6954;DHT22;3516;47.980;8.808;2024-01-16T15:11:43;-3.50;99.90
6954;DHT22;3516;47.980;8.808;2024-01-16T15:14:10;-3.50;99.90
6954;DHT22;3516;47.980;8.808;2024-01-16T15:16:37;-3.50;99.90
6954;DHT22;3516;47.980;8.808;2024-01-16T15:19:04;-3.60;99.90
6954;DHT22;3516;47.980;8.808;2024-01-16T15:21:30;-3.70;99.90
6954;DHT22;3516;47.980;8.808;2024-01-16T15:23:58;-3.70;99.90
6954;DHT22;3516;47.980;8.808;2024-01-16T15:26:25;-3.90;99.90
6954;DHT22;3516;47.980;8.808;2024-01-16T15:28:51;-3.90;99.90
6954;DHT22;3516;47.980;8.808;2024-01-16T15:31:18;-4.00;99.90
6954;DHT22;3516;47.980;8.808;2024-01-16T15:33:46;-4.10;99.90
6954;DHT22;3516;47.980;8.808;2024-01-16T15:36:13;-4.20;99.90
6954;DHT22;3516;47.980;8.808;2024-01-16T15:38:39;-4.20;99.90
6954;DHT22;3516;47.980;8.808;2024-01-16T15:41:07;-4.30;99.90
6954;DHT22;3516;47.980;8.808;2024-01-16T15:43:34;-4.40;99.90
6954;DHT22;3516;47.980;8.808;2024-01-16T15:46:01;-4.40;99.90
6954;DHT22;3516;47.980;8.808;2024-01-16T15:48:28;-4.50;99.90
6954;DHT22;3516;47.980;8.808;2024-01-16T15:50:59;-4.60;99.90
6954;DHT22;3516;47.980;8.808;2024-01-16T15:53:25;-4.60;99.90
6954;DHT22;3516;47.980;8.808;2024-01-16T15:55:52;-4.70;99.90
6954;DHT22;3516;47.980;8.808;2024-01-16T15:58:20;-4.80;99.90
6954;DHT22;3516;47.980;8.808;2024-01-16T16:00:46;-4.90;99.90
6954;DHT22;3516;47.980;8.808;2024-01-16T16:03:13;-4.90;99.90
6954;DHT22;3516;47.980;8.808;2024-01-16T16:05:39;-5.00;99.90
6954;DHT22;3516;47.980;8.808;2024-01-16T16:08:06;-5.00;99.90
6954;DHT22;3516;47.980;8.808;2024-01-16T16:10:33;-5.00;99.90
6954;DHT22;3516;47.980;8.808;2024-01-16T16:13:01;-5.10;99.90
6954;DHT22;3516;47.980;8.808;2024-01-16T16:15:30;-5.20;99.90
6954;DHT22;3516;47.980;8.808;2024-01-16T16:17:57;-5.30;99.90
6954;DHT22;3516;47.980;8.808;2024-01-16T16:20:24;-5.30;99.90
6954;DHT22;3516;47.980;8.808;2024-01-16T16:22:51;-5.40;99.90
6954;DHT22;3516;47.980;8.808;2024-01-16T16:25:18;-5.40;99.90
6954;DHT22;3516;47.980;8.808;2024-01-16T16:27:45;-5.50;99.90
6954;DHT22;3516;47.980;8.808;2024-01-16T16:30:13;-5.60;99.90
6954;DHT22;3516;47.980;8.808;2024-01-16T16:32:41;-5.60;99.90
6954;DHT22;3516;47.980;8.808;2024-01-16T16:35:08;-5.60;99.90
6954;DHT22;3516;47.980;8.808;2024-01-16T16:37:35;-5.70;99.90
6954;DHT22;3516;47.980;8.808;2024-01-16T16:40:01;-5.70;99.90
6954;DHT22;3516;47.980;8.808;2024-01-16T16:42:30;-5.70;99.90
6954;DHT22;3516;47.980;8.808;2024-01-16T16:44:56;-5.80;99.90
6954;DHT22;3516;47.980;8.808;2024-01-16T16:47:24;-5.80;99.90
6954;DHT22;3516;47.980;8.808;2024-01-16T16:49:52;-5.80;99.90
6954;DHT22;3516;47.980;8.808;2024-01-16T16:52:19;-5.90;99.90
6954;DHT22;3516;47.980;8.808;2024-01-16T16:54:45;-5.90;99.90
6954;DHT22;3516;47.980;8.808;2024-01-16T16:57:13;-6.00;99.90
6954;DHT22;3516;47.980;8.808;2024-01-16T16:59:40;-6.00;99.90
6954;DHT22;3516;47.980;8.808;2024-01-16T17:02:06;-6.00;99.90
6954;DHT22;3516;47.980;8.808;2024-01-16T17:04:33;-6.00;99.90
6954;DHT22;3516;47.980;8.808;2024-01-16T17:07:01;-6.10;99.90
6954;DHT22;3516;47.980;8.808;2024-01-16T17:09:28;-6.10;99.90
6954;DHT22;3516;47.980;8.808;2024-01-16T17:11:54;-6.10;99.90
6954;DHT22;3516;47.980;8.808;2024-01-16T17:14:21;-6.10;99.90
6954;DHT22;3516;47.980;8.808;2024-01-16T17:16:48;-6.70;99.90
6954;DHT22;3516;47.980;8.808;2024-01-16T17:19:15;-6.30;99.90
6954;DHT22;3516;47.980;8.808;2024-01-16T17:21:42;-6.40;99.90
6954;DHT22;3516;47.980;8.808;2024-01-16T17:24:10;-6.40;99.90
6954;DHT22;3516;47.980;8.808;2024-01-16T17:26:37;-6.30;99.90
6954;DHT22;3516;47.980;8.808;2024-01-16T17:29:04;-6.30;99.90
6954;DHT22;3516;47.980;8.808;2024-01-16T17:31:31;-6.50;99.90
6954;DHT22;3516;47.980;8.808;2024-01-16T17:33:57;-6.60;99.90
6954;DHT22;3516;47.980;8.808;2024-01-16T17:36:24;-6.40;99.90
6954;DHT22;3516;47.980;8.808;2024-01-16T17:38:53;-6.60;99.90
6954;DHT22;3516;47.980;8.808;2024-01-16T17:41:25;-6.60;99.90
6954;DHT22;3516;47.980;8.808;2024-01-16T17:43:54;-6.60;99.90
6954;DHT22;3516;47.980;8.808;2024-01-16T17:46:20;-6.70;99.90
6954;DHT22;3516;47.980;8.808;2024-01-16T17:48:47;-6.70;99.90
6954;DHT22;3516;47.980;8.808;2024-01-16T17:51:14;-6.80;99.90
6954;DHT22;3516;47.980;8.808;2024-01-16T17:53:40;-6.80;99.90
6954;DHT22;3516;47.980;8.808;2024-01-16T17:56:08;-6.80;99.90
6954;DHT22;3516;47.980;8.808;2024-01-16T17:58:39;-6.90;99.90
6954;DHT22;3516;47.980;8.808;2024-01-16T18:01:05;-6.80;99.90
6954;DHT22;3516;47.980;8.808;2024-01-16T18:03:36;-6.90;99.90
6954;DHT22;3516;47.980;8.808;2024-01-16T18:06:04;-6.90;99.90
6954;DHT22;3516;47.980;8.808;2024-01-16T18:08:32;-6.90;99.90
6954;DHT22;3516;47.980;8.808;2024-01-16T18:10:59;-7.00;99.90
6954;DHT22;3516;47.980;8.808;2024-01-16T18:13:25;-7.00;99.90
6954;DHT22;3516;47.980;8.808;2024-01-16T18:15:57;-7.00;99.90
6954;DHT22;3516;47.980;8.808;2024-01-16T18:18:23;-7.10;99.90
6954;DHT22;3516;47.980;8.808;2024-01-16T18:20:50;-7.10;99.90
6954;DHT22;3516;47.980;8.808;2024-01-16T18:23:16;-7.10;99.90
6954;DHT22;3516;47.980;8.808;2024-01-16T18:25:44;-7.10;99.90
6954;DHT22;3516;47.980;8.808;2024-01-16T18:28:11;-7.20;99.90
6954;DHT22;3516;47.980;8.808;2024-01-16T18:30:38;-7.20;99.90
6954;DHT22;3516;47.980;8.808;2024-01-16T18:33:06;-7.20;99.90
6954;DHT22;3516;47.980;8.808;2024-01-16T18:35:33;-7.20;99.90
6954;DHT22;3516;47.980;8.808;2024-01-16T18:37:59;-7.30;99.90
6954;DHT22;3516;47.980;8.808;2024-01-16T18:40:26;-7.30;99.90
6954;DHT22;3516;47.980;8.808;2024-01-16T18:42:53;-7.30;99.90
6954;DHT22;3516;47.980;8.808;2024-01-16T18:45:20;-7.30;99.90
6954;DHT22;3516;47.980;8.808;2024-01-16T18:47:47;-7.40;99.90
6954;DHT22;3516;47.980;8.808;2024-01-16T18:50:17;-7.40;99.90
6954;DHT22;3516;47.980;8.808;2024-01-16T18:52:44;-7.40;99.90
6954;DHT22;3516;47.980;8.808;2024-01-16T18:55:11;-7.60;99.90
6954;DHT22;3516;47.980;8.808;2024-01-16T18:57:39;-7.50;99.90
6954;DHT22;3516;47.980;8.808;2024-01-16T19:00:08;-7.50;99.90
6954;DHT22;3516;47.980;8.808;2024-01-16T19:02:39;-7.50;99.90
6954;DHT22;3516;47.980;8.808;2024-01-16T19:05:06;-7.60;99.90
6954;DHT22;3516;47.980;8.808;2024-01-16T19:07:39;-7.50;99.90
6954;DHT22;3516;47.980;8.808;2024-01-16T19:10:06;-7.50;99.90
6954;DHT22;3516;47.980;8.808;2024-01-16T19:12:38;-7.60;99.90
6954;DHT22;3516;47.980;8.808;2024-01-16T19:15:05;-7.60;99.90
6954;DHT22;3516;47.980;8.808;2024-01-16T19:17:33;-7.60;99.90
6954;DHT22;3516;47.980;8.808;2024-01-16T19:19:59;-7.60;99.90
6954;DHT22;3516;47.980;8.808;2024-01-16T19:22:29;-7.60;99.90
6954;DHT22;3516;47.980;8.808;2024-01-16T19:24:57;-7.60;99.90
6954;DHT22;3516;47.980;8.808;2024-01-16T19:27:25;-7.60;99.90
6954;DHT22;3516;47.980;8.808;2024-01-16T19:29:52;-7.70;99.90
6954;DHT22;3516;47.980;8.808;2024-01-16T19:32:19;-7.60;99.90
6954;DHT22;3516;47.980;8.808;2024-01-16T19:34:46;-7.70;99.90
6954;DHT22;3516;47.980;8.808;2024-01-16T19:37:12;-7.70;99.90
6954;DHT22;3516;47.980;8.808;2024-01-16T19:39:47;-7.70;99.90
6954;DHT22;3516;47.980;8.808;2024-01-16T19:42:23;-7.70;99.90
6954;DHT22;3516;47.980;8.808;2024-01-16T19:44:50;-7.70;99.90
6954;DHT22;3516;47.980;8.808;2024-01-16T19:47:16;-7.60;99.90
6954;DHT22;3516;47.980;8.808;2024-01-16T19:49:43;-7.80;99.90
6954;DHT22;3516;47.980;8.808;2024-01-16T19:52:10;-7.80;99.90
6954;DHT22;3516;47.980;8.808;2024-01-16T19:54:39;-7.80;99.90
6954;DHT22;3516;47.980;8.808;2024-01-16T19:57:09;-7.80;99.90
6954;DHT22;3516;47.980;8.808;2024-01-16T19:59:37;-7.80;99.90
6954;DHT22;3516;47.980;8.808;2024-01-16T20:02:04;-7.80;99.90
6954;DHT22;3516;47.980;8.808;2024-01-16T20:04:31;-7.90;99.90
6954;DHT22;3516;47.980;8.808;2024-01-16T20:06:58;-7.80;99.90
6954;DHT22;3516;47.980;8.808;2024-01-16T20:09:25;-7.80;99.90
6954;DHT22;3516;47.980;8.808;2024-01-16T20:11:51;-7.90;99.90
6954;DHT22;3516;47.980;8.808;2024-01-16T20:14:19;-7.90;99.90
6954;DHT22;3516;47.980;8.808;2024-01-16T20:16:48;-7.70;99.90
6954;DHT22;3516;47.980;8.808;2024-01-16T20:19:14;-7.80;99.90
6954;DHT22;3516;47.980;8.808;2024-01-16T20:21:41;-7.80;99.90
6954;DHT22;3516;47.980;8.808;2024-01-16T20:24:09;-7.80;99.90
6954;DHT22;3516;47.980;8.808;2024-01-16T20:26:36;-7.80;99.90
6954;DHT22;3516;47.980;8.808;2024-01-16T20:29:03;-7.60;99.90
6954;DHT22;3516;47.980;8.808;2024-01-16T20:31:30;-7.60;99.90
6954;DHT22;3516;47.980;8.808;2024-01-16T20:34:00;-7.60;99.90
6954;DHT22;3516;47.980;8.808;2024-01-16T20:36:26;-7.60;99.90
6954;DHT22;3516;47.980;8.808;2024-01-16T20:38:54;-7.50;99.90
6954;DHT22;3516;47.980;8.808;2024-01-16T20:41:20;-7.30;99.90
6954;DHT22;3516;47.980;8.808;2024-01-16T20:43:47;-7.20;99.90
6954;DHT22;3516;47.980;8.808;2024-01-16T20:46:14;-7.10;99.90
6954;DHT22;3516;47.980;8.808;2024-01-16T20:48:42;-7.20;99.90
